Terminal Aerodrome Forecast
Issued by NWS

Home | Current Version | Previous Version | Text Only | Print | Product List | Glossary On
Versions: 1 2 3 4 5 6 7 8 9 10 11 12 13 14 15 16 17
980
FTUS43 KDVN 202101 AAA
TAFBRL
TAF AMD
KBRL 202101Z 2021/2118 15013G20KT P6SM BKN090
     FM210000 16011KT 4SM SHRA VCTS BKN035CB
     FM210300 22008KT 4SM BR BKN025
     FM210800 28007KT 6SM BR BKN050=

USA.gov is the U.S. government's official web portal to all federal, state and local government web resources and services.